Time;durP1;ratioP1;P1;durP2;ratioP2;P2;SDS_P1;SDS_P2;PMS_P1;PMS_P2;Temp;Humidity;BMP_temperature;BMP_pressure;BME280_temperature;BME280_humidity;BME280_pressure;Samples;Min_cycle;Max_cycle;Signal;HPM_P1;HPM_P2
2022/04/25 00:00:35;;;;;;;;;;;;;;;11.43;74.25;99921.06;4753516;30;19929;-69
2022/04/25 00:03:20;;;;;;;;;;;;;;;11.46;74.14;99925.03;4748775;30;20303;-70
2022/04/25 00:06:05;;;;;;;;;;;;;;;11.46;74.08;99933.22;4753622;30;19922;-70
2022/04/25 00:08:49;;;;;;;;;;;;;;;11.33;74.39;99923.44;4753642;30;20396;-69
2022/04/25 00:11:33;;;;;;;;;;;;;;;11.51;74.45;99933.78;4753446;30;19922;-70
2022/04/25 00:14:18;;;;;;;;;;;;;;;11.29;73.77;99938.84;4753545;30;19922;-71
2022/04/25 00:17:02;;;;;;;;;;;;;;;11.08;73.86;99934.28;4752465;30;20318;-71
2022/04/25 00:19:47;;;;;;;;;;;;;;;10.91;73.94;99929.06;4753001;30;19926;-71
2022/04/25 00:22:31;;;;;;;;;;;;;;;11.11;73.62;99933.63;4753272;30;19922;-71
2022/04/25 00:25:15;;;;;;;;;;;;;;;10.81;74.76;99932.22;4753266;30;19922;-70
2022/04/25 00:28:00;;;;;;;;;;;;;;;10.99;72.40;99927.38;4753294;30;19922;-70
2022/04/25 00:30:47;;;;;;;;;;;;;;;10.99;72.76;99930.88;4753289;30;19926;-70
2022/04/25 00:33:32;;;;;;;;;;;;;;;10.86;73.65;99929.28;4753309;30;19922;-70
2022/04/25 00:36:16;;;;;;;;;;;;;;;10.86;74.05;99925.75;4752950;30;19923;-70
2022/04/25 00:39:01;;;;;;;;;;;;;;;10.93;72.82;99932.22;4748876;30;19922;-70
2022/04/25 00:41:46;;;;;;;;;;;;;;;10.72;73.72;99926.84;4752713;30;19930;-70
2022/04/25 00:44:30;;;;;;;;;;;;;;;10.69;73.06;99921.28;4752892;30;19922;-70
2022/04/25 00:47:15;;;;;;;;;;;;;;;10.81;74.03;99923.25;4747350;30;19922;-70
2022/04/25 00:50:00;;;;;;;;;;;;;;;10.78;73.76;99924.69;4752520;30;20299;-70
2022/04/25 00:52:44;;;;;;;;;;;;;;;10.77;74.31;99914.94;4752747;30;19922;-71
2022/04/25 00:55:29;;;;;;;;;;;;;;;10.84;74.28;99914.41;4752841;30;19922;-70
2022/04/25 00:58:14;;;;;;;;;;;;;;;10.88;74.74;99915.31;4752749;30;19923;-70
2022/04/25 01:00:59;;;;;;;;;;;;;;;10.95;73.79;99912.84;4752168;30;19926;-70
2022/04/25 01:03:43;;;;;;;;;;;;;;;10.97;72.33;99916.03;4750539;30;19922;-70
2022/04/25 01:06:28;;;;;;;;;;;;;;;10.99;73.40;99913.75;4752489;30;20111;-70
2022/04/25 01:09:12;;;;;;;;;;;;;;;11.00;72.79;99912.63;4746714;30;19922;-70
2022/04/25 01:11:58;;;;;;;;;;;;;;;11.07;72.67;99913.66;4752345;30;19930;-70
2022/04/25 01:14:43;;;;;;;;;;;;;;;11.01;72.98;99904.16;4752538;30;19922;-70
2022/04/25 01:17:27;;;;;;;;;;;;;;;11.07;73.26;99904.72;4752424;30;20379;-70
2022/04/25 01:20:11;;;;;;;;;;;;;;;11.02;72.41;99905.72;4752103;30;19926;-70
2022/04/25 01:29:13;;;;;;;;;;;;;;;11.08;73.40;99904.38;4746267;30;19922;-71
2022/04/25 01:31:58;;;;;;;;;;;;;;;11.09;72.27;99910.59;4752023;30;19922;-71
2022/04/25 01:34:42;;;;;;;;;;;;;;;10.43;74.23;99918.00;4752169;30;19922;-70
2022/04/25 01:37:27;;;;;;;;;;;;;;;10.33;74.40;99912.97;4752149;30;19922;-71
2022/04/25 01:40:12;;;;;;;;;;;;;;;10.41;74.14;99909.41;4751852;30;19926;-71
2022/04/25 01:42:56;;;;;;;;;;;;;;;10.30;74.21;99909.03;4750983;30;19930;-71
2022/04/25 01:45:40;;;;;;;;;;;;;;;10.54;74.07;99911.84;4751826;30;19922;-71
2022/04/25 01:48:25;;;;;;;;;;;;;;;10.66;73.68;99902.94;4751845;30;19922;-69
2022/04/25 01:51:10;;;;;;;;;;;;;;;10.75;72.21;99906.34;4745574;30;19922;-70
2022/04/25 01:53:54;;;;;;;;;;;;;;;10.77;72.82;99901.34;4751834;30;19926;-70
2022/04/25 01:56:39;;;;;;;;;;;;;;;10.77;72.78;99901.34;4751795;30;20375;-71
2022/04/25 01:59:23;;;;;;;;;;;;;;;10.84;73.59;99889.94;4751358;30;19922;-72
2022/04/25 02:02:08;;;;;;;;;;;;;;;10.85;73.24;99892.31;4754042;30;19926;-71
2022/04/25 02:04:52;;;;;;;;;;;;;;;10.71;73.88;99892.66;4751646;30;19922;-71
2022/04/25 02:07:37;;;;;;;;;;;;;;;10.73;73.61;99881.41;4752169;30;19922;-70
2022/04/25 02:10:21;;;;;;;;;;;;;;;10.69;73.83;99891.38;4751582;30;19926;-69
2022/04/25 02:13:06;;;;;;;;;;;;;;;10.75;73.90;99889.25;4744918;30;19926;-70
2022/04/25 02:15:50;;;;;;;;;;;;;;;10.79;73.39;99888.22;4751554;30;19922;-69
2022/04/25 02:18:35;;;;;;;;;;;;;;;10.71;74.12;99891.84;4751658;30;19926;-70
2022/04/25 02:21:21;;;;;;;;;;;;;;;10.73;73.92;99889.56;4750892;30;19926;-70
2022/04/25 02:24:06;;;;;;;;;;;;;;;10.77;72.89;99887.75;4751590;30;19926;-71
2022/04/25 02:26:51;;;;;;;;;;;;;;;10.82;71.08;99892.22;4751219;30;19922;-71
2022/04/25 02:29:39;;;;;;;;;;;;;;;10.62;71.33;99889.19;4751438;30;19922;-71
2022/04/25 02:32:24;;;;;;;;;;;;;;;10.44;72.00;99887.78;4751481;30;19923;-71
2022/04/25 02:35:09;;;;;;;;;;;;;;;10.38;72.74;99882.88;4751769;30;19922;-70
2022/04/25 02:37:53;;;;;;;;;;;;;;;10.38;72.93;99883.69;4751634;30;19944;-71
2022/04/25 02:40:38;;;;;;;;;;;;;;;10.37;72.96;99881.28;4751406;30;19926;-70
2022/04/25 02:43:22;;;;;;;;;;;;;;;10.24;72.95;99883.19;4751318;30;19923;-71
2022/04/25 02:46:08;;;;;;;;;;;;;;;10.15;74.09;99883.22;4744792;30;19926;-70
2022/04/25 02:48:52;;;;;;;;;;;;;;;10.13;74.00;99882.75;4751438;30;19922;-72
2022/04/25 02:51:37;;;;;;;;;;;;;;;10.08;73.99;99885.66;4751201;30;19922;-72
2022/04/25 02:54:21;;;;;;;;;;;;;;;10.13;73.86;99888.19;4751421;30;19922;-71
2022/04/25 02:57:05;;;;;;;;;;;;;;;9.96;74.04;99877.44;4751244;30;19922;-71
2022/04/25 02:59:50;;;;;;;;;;;;;;;10.03;74.91;99880.44;4751229;30;19922;-71
2022/04/25 03:02:34;;;;;;;;;;;;;;;10.07;75.55;99884.06;4751135;30;19922;-71
2022/04/25 03:05:19;;;;;;;;;;;;;;;10.16;73.94;99875.88;4750962;30;19922;-71
2022/04/25 03:08:04;;;;;;;;;;;;;;;10.07;74.15;99873.22;4758307;30;20303;-70
2022/04/25 03:10:51;;;;;;;;;;;;;;;10.20;75.43;99871.38;4751156;30;20303;-72
2022/04/25 03:13:36;;;;;;;;;;;;;;;10.13;74.71;99876.53;4752706;30;20009;-71
2022/04/25 03:16:21;;;;;;;;;;;;;;;10.22;75.24;99869.91;4754445;30;20340;-71
2022/04/25 03:19:05;;;;;;;;;;;;;;;10.20;74.36;99877.63;4747868;30;20291;-71
2022/04/25 03:21:49;;;;;;;;;;;;;;;10.20;76.03;99863.25;4756575;30;20396;-71
2022/04/25 03:24:34;;;;;;;;;;;;;;;10.21;73.65;99864.81;4754522;30;19922;-71
2022/04/25 03:27:19;;;;;;;;;;;;;;;9.91;72.93;99874.94;4737323;30;19930;-71
2022/04/25 03:30:04;;;;;;;;;;;;;;;9.83;73.60;99878.50;4747757;30;19922;-71
2022/04/25 03:32:49;;;;;;;;;;;;;;;9.49;75.40;99874.13;4753214;30;19922;-72
2022/04/25 03:35:34;;;;;;;;;;;;;;;9.37;77.01;99880.25;4754065;30;19922;-72
2022/04/25 03:38:21;;;;;;;;;;;;;;;9.38;77.42;99881.84;4749239;30;19922;-72
2022/04/25 03:41:07;;;;;;;;;;;;;;;9.76;76.69;99878.22;4753805;30;19926;-72
2022/04/25 03:43:52;;;;;;;;;;;;;;;9.96;76.05;99876.66;4753951;30;20311;-71
2022/04/25 03:46:36;;;;;;;;;;;;;;;9.75;76.82;99882.88;4753930;30;20307;-71
2022/04/25 03:49:21;;;;;;;;;;;;;;;9.88;77.33;99881.03;4753565;30;19922;-71
2022/04/25 03:52:06;;;;;;;;;;;;;;;9.91;77.03;99880.38;4753704;30;19922;-71
2022/04/25 03:57:54;;;;;;;;;;;;;;;9.83;77.30;99892.09;4752884;30;20315;-71
2022/04/25 04:00:39;;;;;;;;;;;;;;;9.85;77.52;99889.84;4773292;24;19930;-79
2022/04/25 04:03:23;;;;;;;;;;;;;;;9.92;77.75;99898.25;4755989;30;19926;-78
2022/04/25 04:06:09;;;;;;;;;;;;;;;9.84;76.51;99899.13;4755902;30;20304;-78
2022/04/25 04:08:53;;;;;;;;;;;;;;;9.68;77.85;99903.53;4754370;30;19922;-78
2022/04/25 04:11:46;;;;;;;;;;;;;;;9.39;77.53;99905.13;4735554;30;19923;-78
2022/04/25 04:14:30;;;;;;;;;;;;;;;8.97;78.71;99916.94;4744542;30;19923;-78
2022/04/25 04:17:17;;;;;;;;;;;;;;;9.12;77.72;99919.13;4733756;30;19927;-79
2022/04/25 04:20:03;;;;;;;;;;;;;;;9.25;76.99;99918.09;4723965;30;20313;-78
2022/04/25 04:22:47;;;;;;;;;;;;;;;9.26;75.27;99919.69;4740822;30;20400;-79
2022/04/25 04:25:32;;;;;;;;;;;;;;;9.47;74.87;99929.81;4738408;30;20392;-79
2022/04/25 04:28:17;;;;;;;;;;;;;;;9.47;73.47;99930.63;4733421;30;19923;-79
2022/04/25 04:31:01;;;;;;;;;;;;;;;9.41;73.57;99921.88;4748656;30;20392;-79
2022/04/25 04:33:46;;;;;;;;;;;;;;;9.53;72.81;99929.31;4744167;30;19922;-80
2022/04/25 04:36:31;;;;;;;;;;;;;;;9.53;73.39;99933.94;4739087;30;19922;-81
2022/04/25 04:39:15;;;;;;;;;;;;;;;9.69;72.63;99932.28;4738869;30;19930;-79
2022/04/25 04:42:00;;;;;;;;;;;;;;;9.70;73.81;99933.88;4738616;30;19926;-79
2022/04/25 04:44:45;;;;;;;;;;;;;;;9.91;74.30;99942.03;4739119;30;19923;-80
2022/04/25 04:47:34;;;;;;;;;;;;;;;9.77;76.37;99947.72;4739619;30;19922;-80
2022/04/25 04:50:19;;;;;;;;;;;;;;;9.58;76.41;99955.47;4736875;30;19923;-79
2022/04/25 04:53:03;;;;;;;;;;;;;;;9.66;76.66;99949.19;4743817;30;19923;-79
2022/04/25 04:55:49;;;;;;;;;;;;;;;9.84;75.05;99950.72;4742021;30;19923;-79
2022/04/25 04:58:34;;;;;;;;;;;;;;;10.02;74.97;99956.81;4735227;30;19923;-80
2022/04/25 05:01:18;;;;;;;;;;;;;;;10.11;75.36;99955.63;4738360;30;19926;-78
2022/04/25 05:04:03;;;;;;;;;;;;;;;10.37;74.61;99966.34;4738572;30;19922;-80
2022/04/25 05:06:47;;;;;;;;;;;;;;;10.19;75.28;99968.41;4735191;30;19923;-79
2022/04/25 05:09:32;;;;;;;;;;;;;;;10.33;74.98;99967.34;4737605;30;19923;-79
2022/04/25 05:12:17;;;;;;;;;;;;;;;10.14;75.77;99976.72;4744578;30;19922;-79
2022/04/25 05:15:03;;;;;;;;;;;;;;;10.45;75.58;99978.28;4729992;30;19923;-80
2022/04/25 05:17:48;;;;;;;;;;;;;;;10.50;74.44;99984.31;4736628;30;19922;-79
2022/04/25 05:20:33;;;;;;;;;;;;;;;10.58;74.05;99990.78;4736013;30;19926;-80
2022/04/25 05:23:17;;;;;;;;;;;;;;;10.70;74.59;99994.38;4739649;30;19923;-80
2022/04/25 05:26:03;;;;;;;;;;;;;;;10.82;72.61;99993.59;4735334;30;19985;-81
2022/04/25 05:28:48;;;;;;;;;;;;;;;10.84;72.32;100002.25;4736656;30;20308;-80
2022/04/25 05:31:32;;;;;;;;;;;;;;;10.99;72.66;99998.88;4744301;30;19922;-81
2022/04/25 05:34:18;;;;;;;;;;;;;;;11.33;71.50;100005.88;4743486;30;19922;-79
2022/04/25 05:37:02;;;;;;;;;;;;;;;11.54;70.93;100001.16;4732804;30;19922;-80
2022/04/25 05:39:47;;;;;;;;;;;;;;;11.69;70.99;100007.06;4740893;30;19922;-79
2022/04/25 05:42:32;;;;;;;;;;;;;;;11.87;70.23;100003.81;4739982;30;20558;-79
2022/04/25 05:45:18;;;;;;;;;;;;;;;12.08;70.04;100002.91;4738393;30;19923;-79
2022/04/25 05:51:58;;;;;;;;;;;;;;;12.12;69.81;100004.59;4734849;30;19922;-79
2022/04/25 05:54:12;;;;;;;;;;;;;;;12.61;68.80;100009.94;4739121;30;19923;-80
2022/04/25 05:56:56;;;;;;;;;;;;;;;12.87;67.78;100015.75;4736466;30;19935;-79
2022/04/25 05:59:41;;;;;;;;;;;;;;;13.17;67.22;100006.09;4735497;30;19923;-80
2022/04/25 06:02:26;;;;;;;;;;;;;;;13.43;66.36;100013.78;4742234;30;20400;-79
2022/04/25 06:05:11;;;;;;;;;;;;;;;13.87;64.83;100016.44;4724437;30;19922;-79
2022/04/25 06:07:56;;;;;;;;;;;;;;;14.13;63.62;100022.13;4737497;30;20308;-79
2022/04/25 06:10:41;;;;;;;;;;;;;;;14.32;63.53;100024.94;4736961;30;19926;-80
2022/04/25 06:13:26;;;;;;;;;;;;;;;14.87;62.12;100033.94;4745255;30;19926;-79
2022/04/25 06:16:10;;;;;;;;;;;;;;;15.25;59.56;100035.84;4745544;30;19923;-80
2022/04/25 06:18:55;;;;;;;;;;;;;;;15.57;59.38;100028.22;4745193;30;19926;-79
2022/04/25 06:21:39;;;;;;;;;;;;;;;16.11;56.28;100034.22;4738170;30;19926;-80
2022/04/25 06:24:24;;;;;;;;;;;;;;;16.81;54.65;100035.59;4740007;30;19922;-81
2022/04/25 06:27:09;;;;;;;;;;;;;;;17.14;52.70;100043.03;4738675;30;19922;-80
2022/04/25 06:29:54;;;;;;;;;;;;;;;16.61;54.64;100041.22;4738009;30;20305;-81
2022/04/25 06:32:39;;;;;;;;;;;;;;;17.83;50.94;100046.91;4740299;30;19922;-81
2022/04/25 06:35:23;;;;;;;;;;;;;;;18.60;47.96;100041.16;4740338;30;19922;-81
2022/04/25 06:38:07;;;;;;;;;;;;;;;21.10;43.44;100051.94;4733659;30;19923;-80
2022/04/25 06:40:52;;;;;;;;;;;;;;;24.48;35.60;100056.81;4744118;30;20299;-80
2022/04/25 06:43:36;;;;;;;;;;;;;;;25.91;32.58;100061.75;4739634;30;19923;-81
2022/04/25 06:46:21;;;;;;;;;;;;;;;26.72;30.64;100060.84;4734847;30;19923;-81
2022/04/25 06:49:21;;;;;;;;;;;;;;;26.06;31.06;100064.94;4726499;30;20606;-82
2022/04/25 06:52:08;;;;;;;;;;;;;;;27.79;28.82;100072.44;4725198;30;19927;-81
2022/04/25 06:54:53;;;;;;;;;;;;;;;28.57;27.51;100079.03;4739154;30;19922;-81
2022/04/25 06:57:38;;;;;;;;;;;;;;;26.47;30.01;100074.69;4744953;30;20332;-81
2022/04/25 07:00:25;;;;;;;;;;;;;;;28.75;27.23;100084.78;4741814;30;19922;-82
2022/04/25 07:03:09;;;;;;;;;;;;;;;30.30;25.12;100093.97;4736280;30;19922;-80
2022/04/25 07:05:55;;;;;;;;;;;;;;;31.09;23.67;100091.38;4737173;30;19942;-80
2022/04/25 07:08:39;;;;;;;;;;;;;;;30.58;23.52;100089.97;4750673;30;19923;-81
2022/04/25 07:11:24;;;;;;;;;;;;;;;31.54;23.29;100091.25;4741085;30;19923;-82
2022/04/25 07:14:08;;;;;;;;;;;;;;;32.46;22.10;100091.56;4741688;30;19922;-81
2022/04/25 07:16:54;;;;;;;;;;;;;;;32.90;21.38;100100.13;4749590;30;19922;-82
2022/04/25 07:19:39;;;;;;;;;;;;;;;33.61;20.92;100099.88;4744219;30;20320;-82
2022/04/25 07:31:35;;;;;;;;;;;;;;;35.00;18.43;100113.03;4741220;30;19922;-83
2022/04/25 07:34:20;;;;;;;;;;;;;;;34.85;19.33;100122.91;4741721;30;19922;-83
2022/04/25 07:37:05;;;;;;;;;;;;;;;36.63;16.75;100115.81;4744973;30;19922;-83
2022/04/25 07:39:49;;;;;;;;;;;;;;;36.75;16.36;100111.75;4741351;30;19922;-83
2022/04/25 07:42:34;;;;;;;;;;;;;;;36.34;16.60;100117.75;4747442;30;19926;-83
2022/04/25 07:45:19;;;;;;;;;;;;;;;36.59;16.81;100115.28;4736056;30;19923;-83
2022/04/25 07:48:03;;;;;;;;;;;;;;;35.93;17.84;100113.63;4741516;30;20324;-83
2022/04/25 07:50:48;;;;;;;;;;;;;;;36.50;17.16;100115.50;4741445;30;20308;-83
2022/04/25 07:53:32;;;;;;;;;;;;;;;34.94;18.49;100117.13;4743535;30;19923;-83
2022/04/25 07:56:17;;;;;;;;;;;;;;;35.76;18.20;100124.06;4733872;30;19926;-82
2022/04/25 07:59:02;;;;;;;;;;;;;;;37.70;15.97;100124.00;4738608;30;19922;-83
2022/04/25 08:01:46;;;;;;;;;;;;;;;34.14;18.87;100124.25;4739570;30;19930;-83
2022/04/25 08:04:31;;;;;;;;;;;;;;;33.24;20.03;100124.88;4737015;30;19922;-83
2022/04/25 08:07:16;;;;;;;;;;;;;;;31.88;21.79;100126.59;4734243;30;19923;-83
2022/04/25 08:10:01;;;;;;;;;;;;;;;36.19;17.15;100139.81;4739015;30;19922;-83
2022/04/25 08:18:52;;;;;;;;;;;;;;;34.57;18.32;100150.81;4735868;30;20405;-84
2022/04/25 08:21:38;;;;;;;;;;;;;;;34.78;18.49;100154.44;4740175;30;20324;-84
2022/04/25 08:24:22;;;;;;;;;;;;;;;36.75;16.03;100152.22;4740181;30;19922;-84
2022/04/25 08:27:07;;;;;;;;;;;;;;;34.04;19.72;100148.25;4741188;30;19922;-84
2022/04/25 08:29:54;;;;;;;;;;;;;;;36.35;17.84;100153.28;4740884;30;19926;-84
2022/04/25 08:32:39;;;;;;;;;;;;;;;39.75;14.45;100167.84;4740642;30;19923;-85
2022/04/25 08:35:24;;;;;;;;;;;;;;;37.22;16.07;100161.91;4742045;30;19922;-85
2022/04/25 08:38:09;;;;;;;;;;;;;;;39.61;14.49;100173.94;4741241;30;20376;-84
2022/04/25 08:40:54;;;;;;;;;;;;;;;40.58;13.61;100174.81;4739537;30;20304;-84
2022/04/25 08:43:40;;;;;;;;;;;;;;;39.82;14.22;100177.94;4740673;30;20376;-84
2022/04/25 08:46:28;;;;;;;;;;;;;;;34.99;18.16;100164.44;4742602;30;19922;-84
2022/04/25 08:49:14;;;;;;;;;;;;;;;36.82;17.56;100165.91;4751659;30;20400;-85
2022/04/25 08:52:00;;;;;;;;;;;;;;;35.22;18.74;100169.06;4739030;30;19922;-85
2022/04/25 08:54:46;;;;;;;;;;;;;;;38.88;15.23;100171.53;4737578;30;19923;-84
2022/04/25 08:57:32;;;;;;;;;;;;;;;39.20;14.36;100179.63;4753254;30;19927;-84
2022/04/25 09:00:17;;;;;;;;;;;;;;;36.12;17.32;100164.94;4735617;30;19926;-84
2022/04/25 09:03:02;;;;;;;;;;;;;;;31.94;20.89;100160.47;4730165;30;19926;-84
2022/04/25 09:05:46;;;;;;;;;;;;;;;34.76;18.85;100171.88;4742689;30;19922;-86
2022/04/25 09:08:30;;;;;;;;;;;;;;;39.64;14.01;100184.25;4742450;30;19922;-85
2022/04/25 09:14:19;;;;;;;;;;;;;;;31.74;22.74;100169.47;4740158;30;20304;-85
2022/04/25 09:17:04;;;;;;;;;;;;;;;28.51;26.01;100167.56;4742605;30;20316;-85
2022/04/25 09:19:49;;;;;;;;;;;;;;;34.56;19.33;100177.50;4740483;30;19922;-85
2022/04/25 09:22:36;;;;;;;;;;;;;;;31.00;23.11;100170.78;4741169;30;19930;-86
2022/04/25 09:25:22;;;;;;;;;;;;;;;28.79;27.24;100166.63;4741192;30;19926;-86
2022/04/25 09:28:09;;;;;;;;;;;;;;;26.99;29.05;100164.56;4739960;30;19926;-87
2022/04/25 09:31:00;;;;;;;;;;;;;;;26.12;30.32;100149.63;4731924;30;19923;-85
2022/04/25 09:33:44;;;;;;;;;;;;;;;25.67;31.59;100168.97;4733397;30;19922;-85
2022/04/25 09:36:45;;;;;;;;;;;;;;;24.93;32.66;100162.91;4747283;30;19948;-84
2022/04/25 09:39:32;;;;;;;;;;;;;;;24.06;34.45;100169.47;4745483;30;19922;-85
2022/04/25 09:42:27;;;;;;;;;;;;;;;24.01;34.79;100169.97;4754255;30;19930;-86
2022/04/25 09:45:12;;;;;;;;;;;;;;;24.55;33.15;100167.91;4735500;30;19923;-85
2022/04/25 09:47:57;;;;;;;;;;;;;;;25.11;32.75;100176.47;4742254;30;19926;-86
2022/04/25 09:50:43;;;;;;;;;;;;;;;24.50;34.38;100176.75;4741388;30;19926;-87
2022/04/25 09:53:52;;;;;;;;;;;;;;;23.60;37.44;100175.69;4728429;30;20596;-87
2022/04/25 09:56:38;;;;;;;;;;;;;;;23.20;37.27;100171.00;4733314;30;19926;-86
2022/04/25 10:02:24;;;;;;;;;;;;;;;22.47;38.85;100166.56;4728264;30;20359;-71
2022/04/25 10:05:13;;;;;;;;;;;;;;;22.03;39.27;100172.84;4732216;30;19930;-71
2022/04/25 10:07:58;;;;;;;;;;;;;;;21.70;39.93;100173.38;4713818;30;20384;-71
2022/04/25 10:10:47;;;;;;;;;;;;;;;21.45;41.97;100179.03;4715961;30;19923;-71
2022/04/25 10:13:32;;;;;;;;;;;;;;;21.39;42.14;100180.63;4708297;30;20406;-71
2022/04/25 10:16:20;;;;;;;;;;;;;;;21.27;42.35;100184.66;4717007;30;20307;-71
2022/04/25 10:19:06;;;;;;;;;;;;;;;21.13;42.47;100187.41;4716067;30;19922;-71
2022/04/25 10:21:52;;;;;;;;;;;;;;;21.03;43.08;100184.69;4710625;30;20282;-70
2022/04/25 10:24:36;;;;;;;;;;;;;;;20.68;43.70;100186.31;4715529;30;19922;-70
2022/04/25 10:27:27;;;;;;;;;;;;;;;20.59;44.71;100188.69;4710628;30;20404;-71
2022/04/25 10:30:19;;;;;;;;;;;;;;;20.63;43.46;100185.91;4715802;30;19923;-71
2022/04/25 10:33:15;;;;;;;;;;;;;;;20.63;43.13;100183.94;4706778;30;19923;-71
2022/04/25 10:35:59;;;;;;;;;;;;;;;20.71;43.73;100184.75;4715429;30;20344;-71
2022/04/25 10:38:49;;;;;;;;;;;;;;;20.71;43.57;100179.22;4715150;30;20395;-72
2022/04/25 10:44:37;;;;;;;;;;;;;;;20.72;43.53;100175.28;4708932;30;20371;-71
2022/04/25 10:47:24;;;;;;;;;;;;;;;20.86;44.17;100178.00;4711602;30;19923;-72
2022/04/25 10:50:09;;;;;;;;;;;;;;;20.80;43.31;100177.63;4709067;30;19923;-70
2022/04/25 10:52:54;;;;;;;;;;;;;;;20.92;44.08;100182.75;4708850;30;19923;-71
2022/04/25 10:55:42;;;;;;;;;;;;;;;20.96;44.58;100188.25;4731813;30;19923;-71
2022/04/25 10:58:27;;;;;;;;;;;;;;;20.92;45.00;100196.56;4715740;30;19923;-70
2022/04/25 11:01:29;;;;;;;;;;;;;;;21.01;45.17;100193.38;4711571;30;19923;-71
2022/04/25 11:04:14;;;;;;;;;;;;;;;20.94;44.60;100196.16;4709618;30;19922;-71
2022/04/25 11:07:20;;;;;;;;;;;;;;;20.79;43.60;100197.34;4713275;30;19923;-70
2022/04/25 11:10:05;;;;;;;;;;;;;;;20.70;44.12;100196.97;4726753;30;19935;-70
2022/04/25 11:12:59;;;;;;;;;;;;;;;20.52;43.24;100202.50;4715358;30;19923;-72
2022/04/25 11:15:44;;;;;;;;;;;;;;;20.39;44.50;100207.63;4713540;30;19923;-71
2022/04/25 11:18:37;;;;;;;;;;;;;;;20.39;44.17;100207.63;4732160;30;19922;-71
2022/04/25 11:21:29;;;;;;;;;;;;;;;20.36;44.57;100208.44;4711242;30;19923;-70
2022/04/25 11:24:35;;;;;;;;;;;;;;;20.37;45.14;100206.44;4709719;30;19923;-71
2022/04/25 11:27:21;;;;;;;;;;;;;;;20.16;45.35;100209.97;4710686;30;20380;-71
2022/04/25 11:30:13;;;;;;;;;;;;;;;20.21;45.43;100206.03;4708715;30;20322;-71
2022/04/25 11:33:01;;;;;;;;;;;;;;;20.28;44.63;100206.81;4710781;30;20323;-71
2022/04/25 11:35:58;;;;;;;;;;;;;;;20.22;44.40;100208.38;4723916;30;19923;-71
2022/04/25 11:41:47;;;;;;;;;;;;;;;20.11;45.97;100212.31;4701571;30;20312;-71
2022/04/25 11:44:32;;;;;;;;;;;;;;;19.86;45.53;100217.78;4701581;30;19923;-71
2022/04/25 11:47:18;;;;;;;;;;;;;;;19.88;46.37;100215.41;4718294;30;20125;-71
2022/04/25 11:50:04;;;;;;;;;;;;;;;19.94;45.52;100219.38;4708374;30;20318;-71
2022/04/25 11:52:51;;;;;;;;;;;;;;;19.86;46.84;100215.78;4716028;30;20399;-71
2022/04/25 11:55:36;;;;;;;;;;;;;;;19.88;46.41;100220.94;4702856;30;20402;-71
2022/04/25 11:58:30;;;;;;;;;;;;;;;19.79;48.16;100215.00;4712298;30;19927;-71
2022/04/25 12:01:33;;;;;;;;;;;;;;;19.75;47.45;100223.25;4718457;30;19923;-72
2022/04/25 12:04:25;;;;;;;;;;;;;;;19.63;47.02;100224.41;4729949;30;19922;-71
2022/04/25 12:07:11;;;;;;;;;;;;;;;19.64;47.14;100217.69;4708875;30;19927;-71
2022/04/25 12:16:09;;;;;;;;;;;;;;;19.58;48.18;100230.28;4714479;30;20448;-71
2022/04/25 12:18:53;;;;;;;;;;;;;;;19.50;47.87;100225.94;4711049;30;20380;-71
2022/04/25 12:21:40;;;;;;;;;;;;;;;19.56;47.51;100232.63;4710046;30;19923;-71
2022/04/25 12:24:25;;;;;;;;;;;;;;;19.53;47.84;100232.63;4715761;30;20321;-71
2022/04/25 12:27:10;;;;;;;;;;;;;;;19.39;47.88;100233.31;4721266;30;19927;-71
2022/04/25 12:30:08;;;;;;;;;;;;;;;19.43;47.90;100227.81;4713700;30;19927;-71
2022/04/25 12:33:07;;;;;;;;;;;;;;;19.44;48.54;100232.16;4703312;30;19923;-71
2022/04/25 12:36:16;;;;;;;;;;;;;;;19.44;48.73;100232.97;4716977;30;19923;-71
2022/04/25 12:39:00;;;;;;;;;;;;;;;19.40;48.45;100239.63;4708588;30;19927;-70
2022/04/25 12:41:56;;;;;;;;;;;;;;;19.45;48.52;100231.81;4725694;30;19927;-70
2022/04/25 12:44:41;;;;;;;;;;;;;;;19.42;48.11;100243.56;4713345;30;19927;-70
2022/04/25 12:47:27;;;;;;;;;;;;;;;19.43;48.83;100223.09;4709394;30;19923;-71
2022/04/25 12:50:12;;;;;;;;;;;;;;;19.38;49.95;100237.25;4711058;30;19923;-71
2022/04/25 12:52:56;;;;;;;;;;;;;;;19.38;49.12;100242.75;4709266;30;19930;-71
2022/04/25 12:55:44;;;;;;;;;;;;;;;19.40;49.61;100240.41;4714227;30;19927;-71
2022/04/25 12:58:32;;;;;;;;;;;;;;;19.43;49.18;100236.09;4713547;30;20652;-70
2022/04/25 13:01:26;;;;;;;;;;;;;;;19.49;49.25;100243.66;4712325;30;19926;-71
2022/04/25 13:04:14;;;;;;;;;;;;;;;19.57;49.14;100234.22;4717168;30;20082;-71
2022/04/25 13:06:59;;;;;;;;;;;;;;;19.61;48.96;100243.28;4711598;30;19923;-71
2022/04/25 13:09:43;;;;;;;;;;;;;;;19.64;48.45;100238.97;4712661;30;19923;-70
2022/04/25 13:12:32;;;;;;;;;;;;;;;19.58;48.67;100235.81;4704904;30;19923;-71
2022/04/25 13:15:18;;;;;;;;;;;;;;;19.58;49.06;100240.53;4714635;30;19926;-72
2022/04/25 13:18:03;;;;;;;;;;;;;;;19.51;49.20;100234.97;4716122;30;20288;-72
2022/04/25 13:20:48;;;;;;;;;;;;;;;19.32;49.22;100243.50;4717432;30;19922;-72
2022/04/25 13:23:32;;;;;;;;;;;;;;;19.25;49.50;100241.50;4703209;30;19927;-72
2022/04/25 13:26:17;;;;;;;;;;;;;;;19.32;49.23;100244.31;4708044;30;19922;-72
2022/04/25 13:29:02;;;;;;;;;;;;;;;19.36;48.53;100236.03;4727069;30;19923;-71
2022/04/25 13:31:46;;;;;;;;;;;;;;;19.27;49.23;100247.41;4713961;30;19923;-71
2022/04/25 13:34:31;;;;;;;;;;;;;;;19.26;49.44;100251.34;4730010;30;19927;-71
2022/04/25 13:37:16;;;;;;;;;;;;;;;19.25;49.34;100249.00;4715485;30;19927;-72
2022/04/25 13:40:01;;;;;;;;;;;;;;;19.22;49.10;100239.53;4713318;30;19927;-72
2022/04/25 13:42:47;;;;;;;;;;;;;;;19.15;50.09;100243.00;4713348;30;19927;-72
2022/04/25 13:45:31;;;;;;;;;;;;;;;19.05;50.47;100246.50;4716932;30;19927;-72
2022/04/25 13:48:16;;;;;;;;;;;;;;;19.09;50.32;100241.81;4699728;30;19923;-71
2022/04/25 13:51:01;;;;;;;;;;;;;;;19.03;49.88;100242.56;4705070;30;19927;-72
2022/04/25 13:53:45;;;;;;;;;;;;;;;19.09;50.62;100241.03;4732544;30;19923;-72
2022/04/25 13:56:30;;;;;;;;;;;;;;;19.04;50.66;100246.91;4709974;30;20304;-72
2022/04/25 13:59:15;;;;;;;;;;;;;;;19.07;51.07;100246.13;4699643;30;19923;-71
2022/04/25 14:03:05;;;;;;;;;;;;;;;19.10;50.61;100248.09;4705303;30;19927;-71
2022/04/25 14:05:05;;;;;;;;;;;;;;;18.99;51.13;100241.75;4699295;30;19923;-71
2022/04/25 14:07:50;;;;;;;;;;;;;;;18.96;50.34;100245.25;4707048;30;19924;-71
2022/04/25 14:10:36;;;;;;;;;;;;;;;18.86;51.27;100246.75;4714822;30;19923;-72
2022/04/25 14:13:22;;;;;;;;;;;;;;;18.86;50.30;100246.75;4711241;30;20315;-72
2022/04/25 14:16:07;;;;;;;;;;;;;;;18.97;50.50;100241.31;4717413;30;19923;-72
2022/04/25 14:18:54;;;;;;;;;;;;;;;18.96;50.55;100242.50;4733809;30;20300;-71
2022/04/25 14:21:38;;;;;;;;;;;;;;;18.96;50.80;100243.28;4708691;30;19923;-71
2022/04/25 14:24:23;;;;;;;;;;;;;;;18.95;51.11;100240.91;4713909;30;19927;-72
2022/04/25 14:27:08;;;;;;;;;;;;;;;18.96;51.41;100236.97;4714831;30;19923;-72
2022/04/25 14:29:53;;;;;;;;;;;;;;;18.92;51.46;100238.94;4709432;30;19924;-71
2022/04/25 14:32:37;;;;;;;;;;;;;;;18.94;50.89;100233.84;4708386;30;19923;-72
2022/04/25 14:35:22;;;;;;;;;;;;;;;18.93;50.98;100227.53;4716581;30;19926;-72
2022/04/25 14:38:08;;;;;;;;;;;;;;;19.00;51.43;100233.06;4721708;30;20384;-71
2022/04/25 14:40:55;;;;;;;;;;;;;;;18.97;52.02;100233.84;4716448;30;20312;-71
2022/04/25 14:43:40;;;;;;;;;;;;;;;18.91;51.80;100235.38;4702825;30;19927;-70
2022/04/25 14:46:25;;;;;;;;;;;;;;;18.92;51.11;100236.16;4706333;30;19923;-70
2022/04/25 14:49:09;;;;;;;;;;;;;;;18.91;50.70;100231.81;4699135;30;19923;-70
2022/04/25 14:54:58;;;;;;;;;;;;;;;19.05;50.85;100227.19;4715800;30;20299;-71
2022/04/25 14:57:42;;;;;;;;;;;;;;;19.08;51.12;100231.97;4698741;30;20018;-70
2022/04/25 15:00:28;;;;;;;;;;;;;;;19.14;51.12;100233.19;4711977;30;19923;-71
2022/04/25 15:03:12;;;;;;;;;;;;;;;19.14;50.46;100226.88;4711681;30;20396;-80
2022/04/25 15:06:02;;;;;;;;;;;;;;;19.09;50.78;100236.31;4719791;30;19923;-77